Strona główna
METAR-TAF:

METAR-TAF

Lotnisko :

Port lotniczy Dubaj

Dubaj, Zjednoczone Emiraty Arabskie

Szerokość geograficzna: 25-15-10N, Długość geograficzna: 055-21-52E, wysokość: 8 m

Aktualna obserwacja pogody

Raport powstał 30 minut temu, godzina 21:00 UTC
Wiatr 9 kt od zachód
Temperatura 26°C
Wilgotność 54%
Ciśnienie 1015 hPa
Widzialność 10 km lub więcej
Brak chmur poniżej 1500 m i brak chmur cumulonimbus

METAR: OMDB 092100Z 28009KT CAVOK 26/16 Q1015 NOSIG

czas: 01:30 (21:30 UTC)

Prognoza

Raport powstał 4 godziny i 40 minut temu, godzina 16:50 UTC
Prognoza ważna od 09 godzina 18 UTC do 11 godzina 00 UTC
Wiatr 12 kt od zachodnio-północny zachód
Widzialność 10 km lub więcej
Brak chmur poniżej 1500 m i brak chmur cumulonimbus
Prawdopodobieństwo 30%
od 09 godzina 22 UTC do 10 godzina 04 UTC
Wiatr 7 kt od południowy zachód
Stopniowe zmiany
od 10 godzina 17 UTC do 10 godzina 19 UTC
Wiatr 5 kt od południe

TAF: OMDB 091650Z 0918/1100 29012KT CAVOK PROB30 0922/1004 22007KT BECMG 1017/1019 18005KT

Obserwacja i prognoza pogody dla ponad 4000 lotnisk (raport METAR i TAF).

Dostępne stacje oznaczono żółtymi i czerwonymi punktami na mapie.

Najedź kursorem aby zobaczyć nazwę stacji.

Kliknij aby zobaczyć obserwacje i prognozy pogody.

Aby zmienić mapę: kliknij na zielony przycisk z czarnym krzyżykiem, aby powiększyć; na zielony przycisk z myślnikiem, aby pomniejszyć; na zielone strzałki, aby przejść do map sąsiednich.


METAR-TAF: